This is the latest recevied weather packets stored in our database for station/object EA2MKR. If no packets are shown the sender has not sent any weather packets the latest 10 day(s).
| Time | Temp. | Humidity | Pressure | Rain* | Wind** | Luminosity | Snow |
|---|---|---|---|---|---|---|---|
| 1777133081 | 17.22° C | 75% | 955 hPa | 0 mm | - | - | - |
| 1777132780 | 17.22° C | 74% | 954.9 hPa | 0 mm | - | - | - |
| 1777132481 | 17.22° C | 73% | 954.9 hPa | 0 mm | - | - | - |
| 1777132181 | 17.78° C | 71% | 954.9 hPa | 0 mm | - | - | - |
| 1777131882 | 18.33° C | 70% | 954.9 hPa | 0 mm | - | - | - |
| 1777131581 | 18.33° C | 71% | 954.8 hPa | 0 mm | - | - | - |
| 1777131280 | 18.33° C | 70% | 954.7 hPa | 0 mm | - | - | - |
| 1777131103 | 18.89° C | 68% | 954.7 hPa | 0 mm | - | - | - |
| 1777130803 | 18.89° C | 70% | 954.7 hPa | 0 mm | - | - | - |
| 1777130378 | 19.44° C | 66% | 954.7 hPa | 0 mm | - | - | - |
| 1777130201 | 19.44° C | 68% | 954.8 hPa | 0 mm | - | - | - |
| 1777129774 | 19.44° C | 66% | 954.7 hPa | 0 mm | - | - | - |
| 1777129475 | 19.44° C | 66% | 954.7 hPa | 0 mm | - | - | - |
| 1777129172 | 19.44° C | 68% | 954.6 hPa | 0 mm | - | - | - |
| 1777128873 | 19.44° C | 68% | 954.6 hPa | 0 mm | - | - | - |
| 1777128692 | 19.44° C | 69% | 954.6 hPa | 0 mm | - | - | - |
| 1777128272 | 19.44° C | 67% | 954.5 hPa | 0 mm | - | - | - |
| 1777127979 | 19.44° C | 67% | 954.5 hPa | 0 mm | - | - | - |
| 1777127671 | 19.44° C | 68% | 954.6 hPa | 0 mm | - | - | - |
| 1777127491 | 19.44° C | 68% | 954.5 hPa | 0 mm | - | - | - |
| 1777127072 | 20° C | 65% | 954.6 hPa | 0 mm | - | - | - |
| 1777126771 | 20° C | 67% | 954.6 hPa | 0 mm | - | - | - |
| 1777126471 | 19.44° C | 69% | 954.7 hPa | 0 mm | - | - | - |
| 1777126172 | 18.89° C | 69% | 954.7 hPa | 0 mm | - | - | - |
| 1777125871 | 18.89° C | 67% | 954.8 hPa | 0 mm | - | - | - |
* Rain latest hour (hover to see other rain measurements)
** Current wind speed in m/s (hover to see current wind gust speed)